sensor_id;sensor_type;location;lat;lon;timestamp;temperature;humidity
58983;DHT22;44771;49.982;8.560;2022-12-07T00:00:17;2.60;99.90
58983;DHT22;44771;49.982;8.560;2022-12-07T00:05:19;2.60;99.90
58983;DHT22;44771;49.982;8.560;2022-12-07T00:10:21;2.50;99.90
58983;DHT22;44771;49.982;8.560;2022-12-07T00:15:24;2.50;99.90
58983;DHT22;44771;49.982;8.560;2022-12-07T00:20:26;2.50;99.90
58983;DHT22;44771;49.982;8.560;2022-12-07T00:25:28;2.50;99.90
58983;DHT22;44771;49.982;8.560;2022-12-07T00:30:32;2.50;99.90
58983;DHT22;44771;49.982;8.560;2022-12-07T00:35:34;2.50;99.90
58983;DHT22;44771;49.982;8.560;2022-12-07T00:40:36;2.50;99.90
58983;DHT22;44771;49.982;8.560;2022-12-07T00:45:40;2.50;99.90
58983;DHT22;44771;49.982;8.560;2022-12-07T00:50:42;2.50;99.90
58983;DHT22;44771;49.982;8.560;2022-12-07T00:55:44;2.50;99.90
58983;DHT22;44771;49.982;8.560;2022-12-07T01:00:47;2.50;99.90
58983;DHT22;44771;49.982;8.560;2022-12-07T01:05:50;2.50;99.90
58983;DHT22;44771;49.982;8.560;2022-12-07T01:10:58;2.60;99.90
58983;DHT22;44771;49.982;8.560;2022-12-07T01:16:04;2.60;99.90
58983;DHT22;44771;49.982;8.560;2022-12-07T01:21:09;2.60;99.90
58983;DHT22;44771;49.982;8.560;2022-12-07T01:26:13;2.50;99.90
58983;DHT22;44771;49.982;8.560;2022-12-07T01:31:18;2.40;99.90
58983;DHT22;44771;49.982;8.560;2022-12-07T01:36:22;2.30;99.90
58983;DHT22;44771;49.982;8.560;2022-12-07T01:41:26;2.30;99.90
58983;DHT22;44771;49.982;8.560;2022-12-07T01:46:29;2.40;99.90
58983;DHT22;44771;49.982;8.560;2022-12-07T01:51:31;2.40;99.90
58983;DHT22;44771;49.982;8.560;2022-12-07T01:56:34;2.60;99.90
58983;DHT22;44771;49.982;8.560;2022-12-07T02:01:37;2.60;99.90
58983;DHT22;44771;49.982;8.560;2022-12-07T02:06:39;2.60;99.90
58983;DHT22;44771;49.982;8.560;2022-12-07T02:11:41;2.60;99.90
58983;DHT22;44771;49.982;8.560;2022-12-07T02:16:59;2.60;99.90
58983;DHT22;44771;49.982;8.560;2022-12-07T02:22:15;2.70;99.90
58983;DHT22;44771;49.982;8.560;2022-12-07T02:27:34;2.70;99.90
58983;DHT22;44771;49.982;8.560;2022-12-07T02:32:45;2.70;99.90
58983;DHT22;44771;49.982;8.560;2022-12-07T02:37:58;2.80;99.90
58983;DHT22;44771;49.982;8.560;2022-12-07T02:43:04;2.80;99.90
58983;DHT22;44771;49.982;8.560;2022-12-07T02:48:10;2.80;99.90
58983;DHT22;44771;49.982;8.560;2022-12-07T02:53:30;2.70;99.90
58983;DHT22;44771;49.982;8.560;2022-12-07T02:58:41;2.70;99.90
58983;DHT22;44771;49.982;8.560;2022-12-07T03:03:51;2.80;99.90
58983;DHT22;44771;49.982;8.560;2022-12-07T03:09:04;2.70;99.90
58983;DHT22;44771;49.982;8.560;2022-12-07T03:14:14;2.70;99.90
58983;DHT22;44771;49.982;8.560;2022-12-07T03:19:20;2.80;99.90
58983;DHT22;44771;49.982;8.560;2022-12-07T03:24:24;2.80;99.90
58983;DHT22;44771;49.982;8.560;2022-12-07T03:29:30;2.70;99.90
58983;DHT22;44771;49.982;8.560;2022-12-07T03:34:38;2.70;99.90
58983;DHT22;44771;49.982;8.560;2022-12-07T03:39:46;2.60;99.90
58983;DHT22;44771;49.982;8.560;2022-12-07T03:44:51;2.70;99.90
58983;DHT22;44771;49.982;8.560;2022-12-07T03:49:58;2.70;99.90
58983;DHT22;44771;49.982;8.560;2022-12-07T03:55:05;2.80;99.90
58983;DHT22;44771;49.982;8.560;2022-12-07T04:00:10;2.80;99.90
58983;DHT22;44771;49.982;8.560;2022-12-07T04:05:13;2.80;99.90
58983;DHT22;44771;49.982;8.560;2022-12-07T04:10:15;2.80;99.90
58983;DHT22;44771;49.982;8.560;2022-12-07T04:15:17;2.80;99.90
58983;DHT22;44771;49.982;8.560;2022-12-07T04:20:21;2.80;99.90
58983;DHT22;44771;49.982;8.560;2022-12-07T04:25:22;2.90;99.90
58983;DHT22;44771;49.982;8.560;2022-12-07T04:30:24;2.90;99.90
58983;DHT22;44771;49.982;8.560;2022-12-07T04:35:34;2.90;99.90
58983;DHT22;44771;49.982;8.560;2022-12-07T04:40:38;2.90;99.90
58983;DHT22;44771;49.982;8.560;2022-12-07T04:45:47;2.90;99.90
58983;DHT22;44771;49.982;8.560;2022-12-07T04:50:50;2.90;99.90
58983;DHT22;44771;49.982;8.560;2022-12-07T04:56:11;3.00;99.90
58983;DHT22;44771;49.982;8.560;2022-12-07T05:01:13;3.00;99.90
58983;DHT22;44771;49.982;8.560;2022-12-07T05:06:17;3.10;99.90
58983;DHT22;44771;49.982;8.560;2022-12-07T05:11:19;3.00;99.90
58983;DHT22;44771;49.982;8.560;2022-12-07T05:16:21;2.90;99.90
58983;DHT22;44771;49.982;8.560;2022-12-07T05:21:24;3.00;99.90
58983;DHT22;44771;49.982;8.560;2022-12-07T05:26:26;3.00;99.90
58983;DHT22;44771;49.982;8.560;2022-12-07T05:31:28;3.00;99.90
58983;DHT22;44771;49.982;8.560;2022-12-07T05:36:31;2.90;99.90
58983;DHT22;44771;49.982;8.560;2022-12-07T05:41:33;3.00;99.90
58983;DHT22;44771;49.982;8.560;2022-12-07T05:46:34;3.00;99.90
58983;DHT22;44771;49.982;8.560;2022-12-07T05:51:37;3.00;99.90
58983;DHT22;44771;49.982;8.560;2022-12-07T05:56:39;3.00;99.90
58983;DHT22;44771;49.982;8.560;2022-12-07T06:01:41;3.10;99.90
58983;DHT22;44771;49.982;8.560;2022-12-07T06:06:45;3.10;99.90
58983;DHT22;44771;49.982;8.560;2022-12-07T06:11:47;3.10;99.90
58983;DHT22;44771;49.982;8.560;2022-12-07T06:16:49;3.10;99.90
58983;DHT22;44771;49.982;8.560;2022-12-07T06:21:52;3.10;99.90
58983;DHT22;44771;49.982;8.560;2022-12-07T06:26:54;3.20;99.90
58983;DHT22;44771;49.982;8.560;2022-12-07T06:31:56;3.30;99.90
58983;DHT22;44771;49.982;8.560;2022-12-07T06:36:59;3.20;99.90
58983;DHT22;44771;49.982;8.560;2022-12-07T06:42:01;3.20;99.90
58983;DHT22;44771;49.982;8.560;2022-12-07T06:47:02;3.20;99.90
58983;DHT22;44771;49.982;8.560;2022-12-07T06:52:26;3.20;99.90
58983;DHT22;44771;49.982;8.560;2022-12-07T06:57:27;3.20;99.90
58983;DHT22;44771;49.982;8.560;2022-12-07T07:02:29;3.30;99.90
58983;DHT22;44771;49.982;8.560;2022-12-07T07:07:32;3.30;99.90
58983;DHT22;44771;49.982;8.560;2022-12-07T07:12:54;3.20;99.90
58983;DHT22;44771;49.982;8.560;2022-12-07T07:17:58;3.30;99.90
58983;DHT22;44771;49.982;8.560;2022-12-07T07:23:09;3.30;99.90
58983;DHT22;44771;49.982;8.560;2022-12-07T07:28:11;3.30;99.90
58983;DHT22;44771;49.982;8.560;2022-12-07T07:33:13;3.30;99.90
58983;DHT22;44771;49.982;8.560;2022-12-07T07:38:16;3.30;99.90
58983;DHT22;44771;49.982;8.560;2022-12-07T07:43:18;3.30;99.90
58983;DHT22;44771;49.982;8.560;2022-12-07T07:48:20;3.30;99.90
58983;DHT22;44771;49.982;8.560;2022-12-07T07:53:23;3.50;99.90
58983;DHT22;44771;49.982;8.560;2022-12-07T07:58:25;3.50;99.90
58983;DHT22;44771;49.982;8.560;2022-12-07T08:03:42;3.50;99.90
58983;DHT22;44771;49.982;8.560;2022-12-07T08:08:45;3.40;99.90
58983;DHT22;44771;49.982;8.560;2022-12-07T08:13:47;3.50;99.90
58983;DHT22;44771;49.982;8.560;2022-12-07T08:18:49;3.60;99.90
58983;DHT22;44771;49.982;8.560;2022-12-07T08:23:52;3.70;99.90
58983;DHT22;44771;49.982;8.560;2022-12-07T08:28:54;3.70;99.90
58983;DHT22;44771;49.982;8.560;2022-12-07T08:33:56;3.70;99.90
58983;DHT22;44771;49.982;8.560;2022-12-07T08:38:59;3.70;99.90
58983;DHT22;44771;49.982;8.560;2022-12-07T08:44:21;3.60;99.90
58983;DHT22;44771;49.982;8.560;2022-12-07T08:49:25;3.40;99.90
58983;DHT22;44771;49.982;8.560;2022-12-07T08:54:29;3.40;99.90
58983;DHT22;44771;49.982;8.560;2022-12-07T08:59:32;3.50;99.90
58983;DHT22;44771;49.982;8.560;2022-12-07T09:04:34;3.50;99.90
58983;DHT22;44771;49.982;8.560;2022-12-07T09:09:37;3.50;99.90
58983;DHT22;44771;49.982;8.560;2022-12-07T09:14:39;3.60;99.90
58983;DHT22;44771;49.982;8.560;2022-12-07T09:19:41;3.70;99.90
58983;DHT22;44771;49.982;8.560;2022-12-07T09:24:44;3.60;99.90
58983;DHT22;44771;49.982;8.560;2022-12-07T09:29:46;3.60;99.90
58983;DHT22;44771;49.982;8.560;2022-12-07T09:34:47;3.50;99.90
58983;DHT22;44771;49.982;8.560;2022-12-07T09:39:51;3.50;99.90
58983;DHT22;44771;49.982;8.560;2022-12-07T09:44:56;3.70;99.90
58983;DHT22;44771;49.982;8.560;2022-12-07T09:50:03;3.90;99.90
58983;DHT22;44771;49.982;8.560;2022-12-07T09:55:14;4.10;99.90
58983;DHT22;44771;49.982;8.560;2022-12-07T10:00:18;4.10;99.90
58983;DHT22;44771;49.982;8.560;2022-12-07T10:05:23;4.30;99.90
58983;DHT22;44771;49.982;8.560;2022-12-07T10:10:31;4.30;99.90
58983;DHT22;44771;49.982;8.560;2022-12-07T10:15:45;4.30;99.90
58983;DHT22;44771;49.982;8.560;2022-12-07T10:20:48;4.20;99.90
58983;DHT22;44771;49.982;8.560;2022-12-07T10:25:51;4.10;99.90
58983;DHT22;44771;49.982;8.560;2022-12-07T10:30:56;4.30;99.90
58983;DHT22;44771;49.982;8.560;2022-12-07T10:35:59;4.30;99.90
58983;DHT22;44771;49.982;8.560;2022-12-07T10:41:07;4.30;99.90
58983;DHT22;44771;49.982;8.560;2022-12-07T10:51:49;4.70;99.90
58983;DHT22;44771;49.982;8.560;2022-12-07T10:57:05;5.20;99.90
58983;DHT22;44771;49.982;8.560;2022-12-07T11:02:24;5.30;99.90
58983;DHT22;44771;49.982;8.560;2022-12-07T11:07:37;5.20;99.90
58983;DHT22;44771;49.982;8.560;2022-12-07T11:12:51;5.50;99.90
58983;DHT22;44771;49.982;8.560;2022-12-07T11:18:01;5.70;99.90
58983;DHT22;44771;49.982;8.560;2022-12-07T11:23:21;6.20;99.90
58983;DHT22;44771;49.982;8.560;2022-12-07T11:28:41;6.40;99.90
58983;DHT22;44771;49.982;8.560;2022-12-07T11:33:47;6.30;99.90
58983;DHT22;44771;49.982;8.560;2022-12-07T11:38:53;6.10;99.90
58983;DHT22;44771;49.982;8.560;2022-12-07T11:44:00;6.00;99.90
58983;DHT22;44771;49.982;8.560;2022-12-07T11:49:10;5.90;99.90
58983;DHT22;44771;49.982;8.560;2022-12-07T11:54:18;5.90;99.90
58983;DHT22;44771;49.982;8.560;2022-12-07T11:59:25;5.90;99.90
58983;DHT22;44771;49.982;8.560;2022-12-07T12:04:49;5.80;99.90
58983;DHT22;44771;49.982;8.560;2022-12-07T12:09:54;5.80;99.90
58983;DHT22;44771;49.982;8.560;2022-12-07T12:15:09;5.80;99.90
58983;DHT22;44771;49.982;8.560;2022-12-07T12:20:22;5.90;99.90
58983;DHT22;44771;49.982;8.560;2022-12-07T12:25:28;5.80;99.90
58983;DHT22;44771;49.982;8.560;2022-12-07T12:30:34;5.70;99.90
58983;DHT22;44771;49.982;8.560;2022-12-07T12:35:37;5.70;99.90
58983;DHT22;44771;49.982;8.560;2022-12-07T12:40:43;5.90;99.90
58983;DHT22;44771;49.982;8.560;2022-12-07T12:51:37;6.10;99.90
58983;DHT22;44771;49.982;8.560;2022-12-07T12:56:42;6.20;99.90
58983;DHT22;44771;49.982;8.560;2022-12-07T13:01:49;6.10;99.90
58983;DHT22;44771;49.982;8.560;2022-12-07T13:06:52;6.30;99.90
58983;DHT22;44771;49.982;8.560;2022-12-07T13:12:00;6.40;99.90
58983;DHT22;44771;49.982;8.560;2022-12-07T13:17:04;6.30;99.90
58983;DHT22;44771;49.982;8.560;2022-12-07T13:27:46;6.50;99.90
58983;DHT22;44771;49.982;8.560;2022-12-07T13:32:53;6.80;99.90
58983;DHT22;44771;49.982;8.560;2022-12-07T13:37:55;6.50;99.90
58983;DHT22;44771;49.982;8.560;2022-12-07T13:42:58;6.00;99.90
58983;DHT22;44771;49.982;8.560;2022-12-07T13:48:03;5.70;99.90
58983;DHT22;44771;49.982;8.560;2022-12-07T13:53:12;5.80;99.90
58983;DHT22;44771;49.982;8.560;2022-12-07T13:58:14;5.80;99.90
58983;DHT22;44771;49.982;8.560;2022-12-07T14:03:27;5.70;99.90
58983;DHT22;44771;49.982;8.560;2022-12-07T14:08:30;5.40;99.90
58983;DHT22;44771;49.982;8.560;2022-12-07T14:13:34;5.00;99.90
58983;DHT22;44771;49.982;8.560;2022-12-07T14:18:40;4.80;99.90
58983;DHT22;44771;49.982;8.560;2022-12-07T14:23:42;4.70;99.90
58983;DHT22;44771;49.982;8.560;2022-12-07T14:28:44;4.70;99.90
58983;DHT22;44771;49.982;8.560;2022-12-07T14:33:47;4.70;99.90
58983;DHT22;44771;49.982;8.560;2022-12-07T14:38:49;4.60;99.90
58983;DHT22;44771;49.982;8.560;2022-12-07T14:43:51;4.50;99.90
58983;DHT22;44771;49.982;8.560;2022-12-07T14:49:20;4.30;99.90
58983;DHT22;44771;49.982;8.560;2022-12-07T14:54:37;4.10;99.90
58983;DHT22;44771;49.982;8.560;2022-12-07T14:59:39;4.00;99.90
58983;DHT22;44771;49.982;8.560;2022-12-07T15:04:47;3.80;99.90
58983;DHT22;44771;49.982;8.560;2022-12-07T15:09:49;3.70;99.90
58983;DHT22;44771;49.982;8.560;2022-12-07T15:14:51;3.60;99.90
58983;DHT22;44771;49.982;8.560;2022-12-07T15:19:54;3.50;99.90
58983;DHT22;44771;49.982;8.560;2022-12-07T15:24:56;3.40;99.90
58983;DHT22;44771;49.982;8.560;2022-12-07T15:29:57;3.40;99.90
58983;DHT22;44771;49.982;8.560;2022-12-07T15:35:00;3.40;99.90
58983;DHT22;44771;49.982;8.560;2022-12-07T15:40:04;3.30;99.90
58983;DHT22;44771;49.982;8.560;2022-12-07T15:45:09;3.30;99.90
58983;DHT22;44771;49.982;8.560;2022-12-07T15:50:14;3.30;99.90
58983;DHT22;44771;49.982;8.560;2022-12-07T15:55:16;3.20;99.90
58983;DHT22;44771;49.982;8.560;2022-12-07T16:00:19;3.00;99.90
58983;DHT22;44771;49.982;8.560;2022-12-07T16:05:22;2.80;99.90
58983;DHT22;44771;49.982;8.560;2022-12-07T16:10:24;2.70;99.90
58983;DHT22;44771;49.982;8.560;2022-12-07T16:15:26;2.90;99.90
58983;DHT22;44771;49.982;8.560;2022-12-07T16:20:29;2.90;99.90
58983;DHT22;44771;49.982;8.560;2022-12-07T16:25:31;3.10;99.90
58983;DHT22;44771;49.982;8.560;2022-12-07T16:30:32;3.20;99.90
58983;DHT22;44771;49.982;8.560;2022-12-07T16:35:38;3.30;99.90
58983;DHT22;44771;49.982;8.560;2022-12-07T16:40:40;3.20;99.90
58983;DHT22;44771;49.982;8.560;2022-12-07T16:45:42;3.10;99.90
58983;DHT22;44771;49.982;8.560;2022-12-07T16:50:45;3.10;99.90
58983;DHT22;44771;49.982;8.560;2022-12-07T16:55:52;3.20;99.90
58983;DHT22;44771;49.982;8.560;2022-12-07T17:00:54;3.20;99.90
58983;DHT22;44771;49.982;8.560;2022-12-07T17:06:00;3.10;99.90
58983;DHT22;44771;49.982;8.560;2022-12-07T17:11:09;3.00;99.90
58983;DHT22;44771;49.982;8.560;2022-12-07T17:16:11;2.90;99.90
58983;DHT22;44771;49.982;8.560;2022-12-07T17:21:15;2.80;99.90
58983;DHT22;44771;49.982;8.560;2022-12-07T17:26:19;2.80;99.90
58983;DHT22;44771;49.982;8.560;2022-12-07T17:31:22;2.80;99.90
58983;DHT22;44771;49.982;8.560;2022-12-07T17:36:27;2.80;99.90
58983;DHT22;44771;49.982;8.560;2022-12-07T17:41:29;2.80;99.90
58983;DHT22;44771;49.982;8.560;2022-12-07T17:46:31;2.80;99.90
58983;DHT22;44771;49.982;8.560;2022-12-07T17:51:34;2.90;99.90
58983;DHT22;44771;49.982;8.560;2022-12-07T17:56:36;2.90;99.90
58983;DHT22;44771;49.982;8.560;2022-12-07T18:01:44;2.80;99.90
58983;DHT22;44771;49.982;8.560;2022-12-07T18:07:03;2.80;99.90
58983;DHT22;44771;49.982;8.560;2022-12-07T18:12:05;2.80;99.90
58983;DHT22;44771;49.982;8.560;2022-12-07T18:17:10;2.80;99.90
58983;DHT22;44771;49.982;8.560;2022-12-07T18:22:14;2.70;99.90
58983;DHT22;44771;49.982;8.560;2022-12-07T18:27:15;2.70;99.90
58983;DHT22;44771;49.982;8.560;2022-12-07T18:32:17;2.60;99.90
58983;DHT22;44771;49.982;8.560;2022-12-07T18:37:20;2.50;99.90
58983;DHT22;44771;49.982;8.560;2022-12-07T18:42:22;2.30;99.90
58983;DHT22;44771;49.982;8.560;2022-12-07T18:47:24;2.30;99.90
58983;DHT22;44771;49.982;8.560;2022-12-07T18:52:27;2.40;99.90
58983;DHT22;44771;49.982;8.560;2022-12-07T18:57:31;2.40;99.90
58983;DHT22;44771;49.982;8.560;2022-12-07T19:02:33;2.40;99.90
58983;DHT22;44771;49.982;8.560;2022-12-07T19:07:36;2.50;99.90
58983;DHT22;44771;49.982;8.560;2022-12-07T19:12:39;2.50;99.90
58983;DHT22;44771;49.982;8.560;2022-12-07T19:17:41;2.50;99.90
58983;DHT22;44771;49.982;8.560;2022-12-07T19:22:45;2.50;99.90
58983;DHT22;44771;49.982;8.560;2022-12-07T19:27:48;2.50;99.90
58983;DHT22;44771;49.982;8.560;2022-12-07T19:32:49;2.50;99.90
58983;DHT22;44771;49.982;8.560;2022-12-07T19:37:52;2.50;99.90
58983;DHT22;44771;49.982;8.560;2022-12-07T19:42:54;2.50;99.90
58983;DHT22;44771;49.982;8.560;2022-12-07T19:47:56;2.50;99.90
58983;DHT22;44771;49.982;8.560;2022-12-07T19:52:59;2.60;99.90
58983;DHT22;44771;49.982;8.560;2022-12-07T19:58:01;2.60;99.90
58983;DHT22;44771;49.982;8.560;2022-12-07T20:03:03;2.70;99.90
58983;DHT22;44771;49.982;8.560;2022-12-07T20:08:06;2.80;99.90
58983;DHT22;44771;49.982;8.560;2022-12-07T20:13:08;2.80;99.90
58983;DHT22;44771;49.982;8.560;2022-12-07T20:18:10;2.80;99.90
58983;DHT22;44771;49.982;8.560;2022-12-07T20:23:13;2.90;99.90
58983;DHT22;44771;49.982;8.560;2022-12-07T20:28:15;2.80;99.90
58983;DHT22;44771;49.982;8.560;2022-12-07T20:33:17;2.80;99.90
58983;DHT22;44771;49.982;8.560;2022-12-07T20:38:20;2.80;99.90
58983;DHT22;44771;49.982;8.560;2022-12-07T20:43:22;2.80;99.90
58983;DHT22;44771;49.982;8.560;2022-12-07T20:49:12;2.80;99.90
58983;DHT22;44771;49.982;8.560;2022-12-07T20:54:19;2.90;99.90
58983;DHT22;44771;49.982;8.560;2022-12-07T20:59:42;2.80;99.90
58983;DHT22;44771;49.982;8.560;2022-12-07T21:04:44;2.80;99.90
58983;DHT22;44771;49.982;8.560;2022-12-07T21:09:50;2.90;99.90
58983;DHT22;44771;49.982;8.560;2022-12-07T21:14:52;2.80;99.90
58983;DHT22;44771;49.982;8.560;2022-12-07T21:19:54;2.80;99.90
58983;DHT22;44771;49.982;8.560;2022-12-07T21:24:57;2.90;99.90
58983;DHT22;44771;49.982;8.560;2022-12-07T21:29:59;2.80;99.90
58983;DHT22;44771;49.982;8.560;2022-12-07T21:35:24;2.80;99.90
58983;DHT22;44771;49.982;8.560;2022-12-07T21:40:33;2.90;99.90
58983;DHT22;44771;49.982;8.560;2022-12-07T21:45:35;2.80;99.90
58983;DHT22;44771;49.982;8.560;2022-12-07T21:50:36;2.90;99.90
58983;DHT22;44771;49.982;8.560;2022-12-07T21:55:40;2.80;99.90
58983;DHT22;44771;49.982;8.560;2022-12-07T22:00:42;2.80;99.90
58983;DHT22;44771;49.982;8.560;2022-12-07T22:05:44;2.70;99.90
58983;DHT22;44771;49.982;8.560;2022-12-07T22:10:47;2.80;99.90
58983;DHT22;44771;49.982;8.560;2022-12-07T22:15:49;2.70;99.90
58983;DHT22;44771;49.982;8.560;2022-12-07T22:20:51;2.80;99.90
58983;DHT22;44771;49.982;8.560;2022-12-07T22:26:04;2.90;99.90
58983;DHT22;44771;49.982;8.560;2022-12-07T22:31:07;2.70;99.90
58983;DHT22;44771;49.982;8.560;2022-12-07T22:36:10;2.60;99.90
58983;DHT22;44771;49.982;8.560;2022-12-07T22:41:17;2.50;99.90
58983;DHT22;44771;49.982;8.560;2022-12-07T22:46:19;2.60;99.90
58983;DHT22;44771;49.982;8.560;2022-12-07T22:51:23;2.60;99.90
58983;DHT22;44771;49.982;8.560;2022-12-07T22:56:27;2.60;99.90
58983;DHT22;44771;49.982;8.560;2022-12-07T23:01:30;2.60;99.90
58983;DHT22;44771;49.982;8.560;2022-12-07T23:06:33;2.70;99.90
58983;DHT22;44771;49.982;8.560;2022-12-07T23:11:38;2.80;99.90
58983;DHT22;44771;49.982;8.560;2022-12-07T23:16:41;2.90;99.90
58983;DHT22;44771;49.982;8.560;2022-12-07T23:21:43;2.80;99.90
58983;DHT22;44771;49.982;8.560;2022-12-07T23:26:46;2.80;99.90
58983;DHT22;44771;49.982;8.560;2022-12-07T23:31:48;2.90;99.90
58983;DHT22;44771;49.982;8.560;2022-12-07T23:36:50;2.90;99.90
58983;DHT22;44771;49.982;8.560;2022-12-07T23:41:53;2.90;99.90
58983;DHT22;44771;49.982;8.560;2022-12-07T23:46:55;2.90;99.90
58983;DHT22;44771;49.982;8.560;2022-12-07T23:51:57;2.90;99.90
58983;DHT22;44771;49.982;8.560;2022-12-07T23:57:00;3.00;99.90
